createdAt,value
2019-05-10T00:00:17.858Z,1.90
2019-05-10T00:03:02.692Z,2.15
2019-05-10T00:05:48.146Z,1.60
2019-05-10T00:08:33.190Z,2.20
2019-05-10T00:11:07.303Z,1.80
2019-05-10T00:13:43.806Z,1.70
2019-05-10T00:16:11.437Z,1.70
2019-05-10T00:18:37.559Z,1.67
2019-05-10T00:21:04.090Z,1.50
2019-05-10T00:23:30.264Z,1.60
2019-05-10T00:25:56.489Z,1.47
2019-05-10T00:28:22.728Z,1.90
2019-05-10T00:30:48.996Z,1.47
2019-05-10T00:33:15.190Z,1.72
2019-05-10T00:35:42.397Z,1.55
2019-05-10T00:38:08.576Z,1.60
2019-05-10T00:40:34.831Z,1.47
2019-05-10T00:43:00.998Z,2.08
2019-05-10T00:45:27.235Z,1.57
2019-05-10T00:47:53.424Z,1.62
2019-05-10T00:50:19.677Z,1.32
2019-05-10T00:52:45.773Z,1.70
2019-05-10T00:55:18.980Z,1.57
2019-05-10T00:57:40.279Z,1.80
2019-05-10T01:00:07.093Z,1.55
2019-05-10T01:02:33.358Z,1.62
2019-05-10T01:04:59.521Z,1.52
2019-05-10T01:07:25.779Z,1.60
2019-05-10T01:09:52.058Z,1.77
2019-05-10T01:12:18.323Z,1.70
2019-05-10T01:14:44.498Z,1.80
2019-05-10T01:17:10.697Z,1.70
2019-05-10T01:19:37.028Z,2.00
2019-05-10T01:22:03.298Z,2.05
2019-05-10T01:24:29.504Z,1.67
2019-05-10T01:26:55.621Z,1.70
2019-05-10T01:29:21.837Z,2.00
2019-05-10T01:31:47.935Z,2.33
2019-05-10T01:34:14.299Z,1.85
2019-05-10T01:36:40.404Z,1.85
2019-05-10T01:39:06.568Z,2.30
2019-05-10T01:41:32.735Z,1.95
2019-05-10T01:43:58.880Z,2.05
2019-05-10T01:46:25.009Z,2.05
2019-05-10T01:48:51.207Z,2.50
2019-05-10T01:51:17.376Z,1.75
2019-05-10T01:53:43.723Z,2.72
2019-05-10T01:56:09.938Z,2.15
2019-05-10T01:58:36.100Z,2.70
2019-05-10T02:01:04.962Z,2.55
2019-05-10T02:03:31.086Z,2.77
2019-05-10T02:05:57.420Z,2.20
2019-05-10T02:08:23.691Z,3.12
2019-05-10T02:10:51.084Z,2.50
2019-05-10T02:13:17.383Z,3.00
2019-05-10T02:15:43.554Z,3.10
2019-05-10T02:18:09.887Z,3.12
2019-05-10T02:20:36.063Z,2.87
2019-05-10T02:23:02.403Z,3.30
2019-05-10T02:25:28.603Z,2.90
2019-05-10T02:27:54.726Z,3.47
2019-05-10T02:30:21.167Z,3.30
2019-05-10T02:32:47.313Z,4.03
2019-05-10T02:35:15.739Z,3.65
2019-05-10T02:37:42.018Z,4.08
2019-05-10T02:40:08.469Z,3.90
2019-05-10T02:42:34.783Z,4.10
2019-05-10T02:45:01.166Z,4.20
2019-05-10T02:47:27.369Z,4.17
2019-05-10T02:49:53.481Z,4.58
2019-05-10T02:52:19.746Z,4.25
2019-05-10T02:54:45.884Z,5.58
2019-05-10T02:57:12.636Z,4.33
2019-05-10T02:59:40.114Z,4.30
2019-05-10T03:02:06.404Z,5.00
2019-05-10T03:04:34.869Z,6.22
2019-05-10T03:07:02.224Z,5.35
2019-05-10T03:09:32.196Z,5.33
2019-05-10T03:12:02.531Z,5.65
2019-05-10T03:14:32.623Z,5.58
2019-05-10T03:17:02.466Z,5.40
2019-05-10T03:19:30.231Z,5.75
2019-05-10T03:22:04.782Z,5.92
2019-05-10T03:24:32.188Z,6.80
2019-05-10T03:26:58.932Z,6.12
2019-05-10T03:29:25.478Z,6.70
2019-05-10T03:31:52.084Z,6.30
2019-05-10T03:34:18.203Z,6.50
2019-05-10T03:36:44.426Z,6.53
2019-05-10T03:39:10.534Z,7.25
2019-05-10T03:41:36.946Z,7.00
2019-05-10T03:44:03.574Z,7.87
2019-05-10T03:46:29.790Z,7.10
2019-05-10T03:48:56.021Z,6.83
2019-05-10T03:51:22.131Z,7.20
2019-05-10T03:53:48.367Z,7.03
2019-05-10T03:56:14.477Z,7.30
2019-05-10T03:58:40.677Z,7.30
2019-05-10T04:01:06.782Z,7.37
2019-05-10T04:03:32.995Z,9.68
2019-05-10T04:05:59.317Z,7.37
2019-05-10T04:08:25.590Z,7.47
2019-05-10T04:10:51.968Z,7.50
2019-05-10T04:13:18.230Z,8.28
2019-05-10T04:15:45.742Z,7.20
2019-05-10T04:18:11.902Z,7.62
2019-05-10T04:20:38.048Z,14.70
2019-05-10T04:23:04.206Z,9.60
2019-05-10T04:25:30.361Z,7.45
2019-05-10T04:27:56.538Z,7.50
2019-05-10T04:30:22.823Z,7.75
2019-05-10T04:32:49.047Z,7.15
2019-05-10T04:35:15.162Z,7.05
2019-05-10T04:37:41.375Z,6.20
2019-05-10T04:40:08.704Z,5.67
2019-05-10T04:42:34.905Z,5.47
2019-05-10T04:45:01.413Z,7.85
2019-05-10T04:47:27.633Z,5.83
2019-05-10T04:49:53.810Z,5.55
2019-05-10T04:52:21.091Z,6.08
2019-05-10T04:54:48.438Z,5.65
2019-05-10T04:57:14.589Z,5.75
2019-05-10T04:59:40.752Z,6.22
2019-05-10T05:02:06.919Z,5.55
2019-05-10T05:04:33.113Z,4.87
2019-05-10T05:06:59.398Z,5.22
2019-05-10T05:09:26.597Z,5.28
2019-05-10T05:11:52.777Z,5.03
2019-05-10T05:14:19.141Z,5.05
2019-05-10T05:16:45.404Z,5.33
2019-05-10T05:19:11.662Z,5.25
2019-05-10T05:21:37.884Z,5.70
2019-05-10T05:24:03.981Z,6.10
2019-05-10T05:26:30.184Z,6.37
2019-05-10T05:28:56.288Z,5.42
2019-05-10T05:31:22.546Z,5.45
2019-05-10T05:33:48.801Z,5.45
2019-05-10T05:36:15.118Z,5.55
2019-05-10T05:38:47.127Z,5.50
2019-05-10T05:41:09.438Z,5.25
2019-05-10T05:43:35.646Z,5.50
2019-05-10T05:46:01.854Z,4.83
2019-05-10T05:48:39.783Z,5.17
2019-05-10T05:50:56.368Z,4.70
2019-05-10T05:53:22.811Z,4.60
2019-05-10T05:55:49.025Z,5.17
2019-05-10T05:58:25.600Z,4.45
2019-05-10T06:00:46.808Z,4.22
2019-05-10T06:03:19.309Z,4.15
2019-05-10T06:05:41.252Z,4.80
2019-05-10T06:08:21.283Z,4.33
2019-05-10T06:10:35.677Z,4.60
2019-05-10T06:13:01.787Z,4.20
2019-05-10T06:15:29.197Z,4.17
2019-05-10T06:17:57.589Z,4.65
2019-05-10T06:20:24.290Z,4.37
2019-05-10T06:23:05.545Z,4.03
2019-05-10T06:25:18.739Z,4.22
2019-05-10T06:27:44.995Z,4.12
2019-05-10T06:30:11.377Z,4.70
2019-05-10T06:32:37.534Z,5.20
2019-05-10T06:35:06.667Z,3.90
2019-05-10T06:37:33.141Z,4.53
2019-05-10T06:39:59.304Z,5.22
2019-05-10T06:42:28.733Z,4.20
2019-05-10T06:44:53.522Z,4.70
2019-05-10T06:47:21.888Z,4.40
2019-05-10T06:49:52.148Z,4.83
2019-05-10T06:52:16.529Z,3.90
2019-05-10T06:54:42.831Z,4.37
2019-05-10T06:57:11.290Z,4.10
2019-05-10T06:59:37.078Z,3.62
2019-05-10T07:02:03.341Z,3.20
2019-05-10T07:04:34.515Z,2.52
2019-05-10T07:06:57.579Z,2.70
2019-05-10T07:09:23.785Z,2.30
2019-05-10T07:11:50.004Z,2.27
2019-05-10T07:14:16.243Z,2.00
2019-05-10T07:16:42.491Z,2.35
2019-05-10T07:19:08.615Z,2.10
2019-05-10T07:21:38.901Z,2.08
2019-05-10T07:24:03.005Z,2.00
2019-05-10T07:26:29.353Z,1.80
2019-05-10T07:28:57.627Z,1.80
2019-05-10T07:31:24.006Z,2.00
2019-05-10T07:33:50.313Z,1.85
2019-05-10T07:36:20.916Z,1.87
2019-05-10T07:38:44.742Z,1.72
2019-05-10T07:41:11.048Z,1.25
2019-05-10T07:43:37.695Z,1.92
2019-05-10T07:46:08.943Z,1.70
2019-05-10T07:48:32.106Z,1.35
2019-05-10T07:50:58.285Z,1.65
2019-05-10T07:53:25.280Z,1.40
2019-05-10T07:55:51.652Z,1.40
2019-05-10T07:58:17.843Z,1.35
2019-05-10T08:00:46.491Z,1.30
2019-05-10T08:03:16.835Z,1.25
2019-05-10T08:05:40.334Z,1.50
2019-05-10T08:08:06.776Z,1.05
2019-05-10T08:10:33.159Z,1.40
2019-05-10T08:13:03.224Z,1.32
2019-05-10T08:15:30.516Z,1.30
2019-05-10T08:17:55.591Z,1.32
2019-05-10T08:20:41.032Z,1.40
2019-05-10T08:22:49.822Z,1.60
2019-05-10T08:25:15.927Z,1.10
2019-05-10T08:27:50.066Z,0.90
2019-05-10T08:30:22.620Z,0.90
2019-05-10T08:32:38.854Z,1.20
2019-05-10T08:35:16.365Z,1.20
2019-05-10T08:37:37.792Z,1.20
2019-05-10T08:40:04.108Z,1.40
2019-05-10T08:42:43.845Z,1.10
2019-05-10T08:45:05.474Z,1.10
2019-05-10T08:47:29.527Z,1.30
2019-05-10T08:50:10.550Z,0.93
2019-05-10T08:52:30.592Z,0.98
2019-05-10T08:54:54.935Z,0.88
2019-05-10T08:57:22.139Z,0.90
2019-05-10T08:59:54.484Z,1.10
2019-05-10T09:02:23.108Z,1.05
2019-05-10T09:04:50.200Z,0.98
2019-05-10T09:07:13.768Z,1.10
2019-05-10T09:09:45.788Z,1.10
2019-05-10T09:12:09.384Z,1.20
2019-05-10T09:14:36.230Z,1.07
2019-05-10T09:17:04.346Z,0.80
2019-05-10T09:19:37.350Z,1.25
2019-05-10T09:21:58.663Z,0.70
2019-05-10T09:24:24.942Z,0.95
2019-05-10T09:26:54.770Z,0.90
2019-05-10T09:29:19.240Z,0.80
2019-05-10T09:31:50.463Z,0.80
2019-05-10T09:34:13.470Z,0.95
2019-05-10T09:36:42.933Z,0.95
2019-05-10T09:39:09.187Z,0.78
2019-05-10T09:41:38.261Z,0.70
2019-05-10T09:44:04.250Z,0.90
2019-05-10T09:46:32.436Z,0.82
2019-05-10T09:49:04.812Z,0.80
2019-05-10T09:51:30.235Z,0.70
2019-05-10T09:53:54.806Z,0.72
2019-05-10T09:56:20.988Z,0.70
2019-05-10T09:58:48.337Z,0.82
2019-05-10T10:01:21.242Z,0.80
2019-05-10T10:03:44.866Z,0.75
2019-05-10T10:06:11.582Z,1.00
2019-05-10T10:08:38.641Z,0.90
2019-05-10T10:11:13.500Z,1.00
2019-05-10T10:13:40.864Z,0.95
2019-05-10T10:16:04.045Z,1.10
2019-05-10T10:18:31.164Z,1.00
2019-05-10T10:20:57.581Z,1.55
2019-05-10T10:23:29.912Z,1.00
2019-05-10T10:25:53.447Z,1.00
2019-05-10T10:28:22.558Z,1.07
2019-05-10T10:30:50.417Z,1.10
2019-05-10T10:33:22.479Z,1.00
2019-05-10T10:35:47.906Z,1.10
2019-05-10T10:38:13.449Z,1.22
2019-05-10T10:40:44.516Z,1.15
2019-05-10T10:43:07.925Z,1.20
2019-05-10T10:45:34.131Z,1.20
2019-05-10T10:48:02.561Z,1.35
2019-05-10T10:50:29.065Z,1.20
2019-05-10T10:52:57.507Z,1.27
2019-05-10T10:55:23.733Z,1.02
2019-05-10T10:57:49.957Z,1.07
2019-05-10T11:00:23.265Z,0.90
2019-05-10T11:02:51.870Z,1.15
2019-05-10T11:05:16.307Z,0.95
2019-05-10T11:07:47.303Z,1.20
2019-05-10T11:10:16.180Z,0.95
2019-05-10T11:12:41.261Z,1.25
2019-05-10T11:15:07.353Z,1.20
2019-05-10T11:17:33.610Z,1.07
2019-05-10T11:20:00.610Z,1.20
2019-05-10T11:22:27.453Z,1.12
2019-05-10T11:25:03.080Z,0.72
2019-05-10T11:27:22.562Z,0.85
2019-05-10T11:29:52.756Z,0.82
2019-05-10T11:32:17.183Z,0.80
2019-05-10T11:34:43.519Z,0.78
2019-05-10T11:37:09.774Z,0.98
2019-05-10T11:39:41.956Z,0.70
2019-05-10T11:42:07.157Z,0.60
2019-05-10T11:44:32.252Z,1.10
2019-05-10T11:46:58.510Z,0.82
2019-05-10T11:49:24.680Z,0.60
2019-05-10T11:51:54.859Z,0.80
2019-05-10T11:54:21.562Z,0.70
2019-05-10T11:56:47.990Z,0.93
2019-05-10T11:59:16.459Z,0.90
2019-05-10T12:01:42.300Z,0.90
2019-05-10T12:04:13.152Z,0.65
2019-05-10T12:06:41.287Z,0.80
2019-05-10T12:09:05.661Z,0.70
2019-05-10T12:11:33.929Z,0.90
2019-05-10T12:14:02.381Z,0.70
2019-05-10T12:16:28.003Z,0.82
2019-05-10T12:21:22.390Z,0.80
2019-05-10T12:23:51.940Z,0.90
2019-05-10T12:26:36.003Z,0.80
2019-05-10T12:27:13.979Z,0.90
2019-05-10T12:28:45.173Z,0.95
2019-05-10T12:31:15.093Z,0.65
2019-05-10T12:33:44.557Z,0.70
2019-05-10T12:36:13.090Z,0.68
2019-05-10T12:38:38.058Z,0.65
2019-05-10T12:41:05.510Z,0.70
2019-05-10T12:43:32.814Z,0.90
2019-05-10T12:45:59.006Z,0.82
2019-05-10T12:48:26.317Z,0.95
2019-05-10T12:50:57.942Z,0.80
2019-05-10T12:53:22.274Z,0.78
2019-05-10T12:55:48.541Z,0.78
2019-05-10T12:58:14.724Z,0.78
2019-05-10T13:00:40.913Z,0.78
2019-05-10T13:03:12.803Z,0.70
2019-05-10T13:05:51.091Z,0.88
2019-05-10T13:08:03.321Z,0.90
2019-05-10T13:10:29.660Z,0.80
2019-05-10T13:12:55.826Z,0.98
2019-05-10T13:15:24.638Z,0.78
2019-05-10T13:17:53.090Z,0.88
2019-05-10T13:20:19.743Z,0.90
2019-05-10T13:22:45.854Z,0.90
2019-05-10T13:25:12.475Z,0.70
2019-05-10T13:27:38.854Z,0.88
2019-05-10T13:30:06.850Z,1.00
2019-05-10T13:32:33.059Z,0.90
2019-05-10T13:34:59.297Z,0.80
2019-05-10T13:37:25.516Z,0.80
2019-05-10T13:39:51.744Z,0.90
2019-05-10T13:42:18.048Z,0.80
2019-05-10T13:44:44.601Z,0.80
2019-05-10T13:47:11.050Z,1.05
2019-05-10T13:49:37.351Z,0.90
2019-05-10T13:52:03.460Z,0.80
2019-05-10T13:54:31.221Z,1.07
2019-05-10T13:56:57.713Z,1.27
2019-05-10T13:59:24.193Z,1.05
2019-05-10T14:01:51.500Z,3.27
2019-05-10T14:04:17.966Z,1.60
2019-05-10T14:06:44.250Z,0.98
2019-05-10T14:09:10.659Z,0.93
2019-05-10T14:11:40.363Z,0.90
2019-05-10T14:14:05.104Z,0.93
2019-05-10T14:16:31.263Z,0.72
2019-05-10T14:18:57.405Z,0.80
2019-05-10T14:21:23.814Z,1.00
2019-05-10T14:23:49.966Z,0.82
2019-05-10T14:26:18.236Z,0.75
2019-05-10T14:28:47.385Z,0.78
2019-05-10T14:31:12.497Z,0.80
2019-05-10T14:33:38.736Z,0.85
2019-05-10T14:36:04.890Z,0.70
2019-05-10T14:38:31.088Z,0.65
2019-05-10T14:40:57.274Z,0.70
2019-05-10T14:43:23.527Z,0.88
2019-05-10T14:45:49.642Z,1.02
2019-05-10T14:48:15.865Z,0.70
2019-05-10T14:50:46.195Z,1.30
2019-05-10T14:53:10.269Z,0.70
2019-05-10T14:55:36.996Z,0.93
2019-05-10T14:58:03.531Z,1.00
2019-05-10T15:00:29.772Z,0.90
2019-05-10T15:02:56.693Z,0.80
2019-05-10T15:05:24.218Z,0.90
2019-05-10T15:07:51.224Z,1.00
2019-05-10T15:10:17.803Z,1.00
2019-05-10T15:12:43.980Z,0.85
2019-05-10T15:15:10.701Z,1.20
2019-05-10T15:17:36.813Z,1.42
2019-05-10T15:20:05.677Z,1.42
2019-05-10T15:22:31.792Z,2.10
2019-05-10T15:24:58.062Z,3.92
2019-05-10T15:27:24.202Z,1.55
2019-05-10T15:29:50.408Z,1.00
2019-05-10T15:32:16.522Z,1.20
2019-05-10T15:34:42.784Z,1.45
2019-05-10T15:37:10.575Z,1.52
2019-05-10T15:39:37.012Z,1.40
2019-05-10T15:42:03.383Z,1.77
2019-05-10T15:44:31.390Z,1.60
2019-05-10T15:46:57.748Z,1.37
2019-05-10T15:49:25.062Z,1.27
2019-05-10T15:51:56.850Z,1.17
2019-05-10T15:54:19.272Z,1.32
2019-05-10T15:56:45.541Z,1.40
2019-05-10T15:59:12.924Z,3.33
2019-05-10T16:01:39.913Z,3.85
2019-05-10T16:04:06.173Z,1.37
2019-05-10T16:06:37.558Z,7.67
2019-05-10T16:09:02.810Z,7.37
2019-05-10T16:11:29.812Z,2.05
2019-05-10T16:14:00.121Z,1.20
2019-05-10T16:16:24.363Z,1.50
2019-05-10T16:18:50.529Z,1.00
2019-05-10T16:21:16.903Z,1.10
2019-05-10T16:23:46.807Z,1.10
2019-05-10T16:26:11.808Z,1.07
2019-05-10T16:28:38.009Z,1.27
2019-05-10T16:31:04.388Z,1.20
2019-05-10T16:33:30.626Z,1.35
2019-05-10T16:35:56.874Z,1.20
2019-05-10T16:38:23.269Z,1.00
2019-05-10T16:40:58.348Z,1.10
2019-05-10T16:43:23.867Z,1.20
2019-05-10T16:45:46.488Z,1.10
2019-05-10T16:48:12.639Z,1.30
2019-05-10T16:50:38.843Z,1.10
2019-05-10T16:53:07.973Z,1.20
2019-05-10T16:55:35.679Z,1.35
2019-05-10T16:58:01.651Z,1.15
2019-05-10T17:00:28.124Z,1.40
2019-05-10T17:02:54.284Z,1.35
2019-05-10T17:05:20.552Z,1.22
2019-05-10T17:07:46.718Z,1.40
2019-05-10T17:10:13.223Z,2.67
2019-05-10T17:12:39.418Z,1.35
2019-05-10T17:15:05.773Z,1.72
2019-05-10T17:17:37.091Z,1.27
2019-05-10T17:20:00.701Z,1.60
2019-05-10T17:22:26.959Z,3.67
2019-05-10T17:24:56.763Z,3.35
2019-05-10T17:27:21.416Z,1.90
2019-05-10T17:29:49.826Z,1.60
2019-05-10T17:32:18.533Z,1.17
2019-05-10T17:34:44.057Z,1.42
2019-05-10T17:37:11.281Z,1.10
2019-05-10T17:39:37.479Z,1.17
2019-05-10T17:42:05.049Z,1.15
2019-05-10T17:44:31.418Z,1.35
2019-05-10T17:46:57.634Z,1.07
2019-05-10T17:49:23.975Z,1.12
2019-05-10T17:51:50.345Z,1.32
2019-05-10T17:54:17.636Z,1.20
2019-05-10T17:56:44.042Z,1.10
2019-05-10T17:59:12.030Z,1.50
2019-05-10T18:01:38.711Z,1.47
2019-05-10T18:04:05.005Z,1.60
2019-05-10T18:06:31.176Z,1.42
2019-05-10T18:08:57.476Z,4.78
2019-05-10T18:11:23.877Z,2.27
2019-05-10T18:13:50.163Z,1.80
2019-05-10T18:16:17.397Z,1.50
2019-05-10T18:18:47.192Z,1.75
2019-05-10T18:21:15.739Z,1.75
2019-05-10T18:23:40.041Z,2.00
2019-05-10T18:26:06.327Z,1.90
2019-05-10T18:28:32.537Z,2.10
2019-05-10T18:30:58.715Z,1.95
2019-05-10T18:33:26.154Z,2.20
2019-05-10T18:35:54.504Z,1.62
2019-05-10T18:38:20.423Z,1.92
2019-05-10T18:40:46.695Z,2.10
2019-05-10T18:43:13.025Z,1.85
2019-05-10T18:45:39.210Z,1.90
2019-05-10T18:48:05.479Z,3.42
2019-05-10T18:50:31.628Z,4.33
2019-05-10T18:52:57.866Z,2.22
2019-05-10T18:55:24.252Z,1.90
2019-05-10T18:57:52.588Z,2.10
2019-05-10T19:00:23.225Z,2.00
2019-05-10T19:02:49.654Z,2.15
2019-05-10T19:05:15.928Z,1.80
2019-05-10T19:07:42.333Z,2.10
2019-05-10T19:10:08.958Z,2.10
2019-05-10T19:12:35.894Z,2.10
2019-05-10T19:15:08.999Z,2.50
2019-05-10T19:17:33.514Z,2.65
2019-05-10T19:19:59.816Z,2.33
2019-05-10T19:22:27.095Z,2.80
2019-05-10T19:24:56.697Z,2.92
2019-05-10T19:27:24.881Z,2.42
2019-05-10T19:29:50.531Z,2.45
2019-05-10T19:32:18.030Z,2.60
2019-05-10T19:34:48.281Z,2.50
2019-05-10T19:37:26.853Z,2.15
2019-05-10T19:39:40.996Z,2.27
2019-05-10T19:42:07.313Z,2.20
2019-05-10T19:44:34.803Z,1.75
2019-05-10T19:47:01.952Z,1.90
2019-05-10T19:49:28.143Z,2.10
2019-05-10T19:51:54.496Z,2.08
2019-05-10T19:54:21.321Z,2.15
2019-05-10T19:56:47.776Z,2.17
2019-05-10T19:59:13.884Z,2.02
2019-05-10T20:01:40.222Z,2.10
2019-05-10T20:04:09.352Z,1.60
2019-05-10T20:06:34.429Z,2.20
2019-05-10T20:09:00.619Z,1.90
2019-05-10T20:11:27.043Z,2.25
2019-05-10T20:13:53.199Z,1.70
2019-05-10T20:16:19.431Z,4.30
2019-05-10T20:18:45.728Z,4.58
2019-05-10T20:21:11.978Z,6.60
2019-05-10T20:23:38.221Z,6.28
2019-05-10T20:26:04.385Z,6.50
2019-05-10T20:28:30.608Z,6.22
2019-05-10T20:30:56.720Z,4.12
2019-05-10T20:33:22.937Z,4.30
2019-05-10T20:35:49.047Z,4.58
2019-05-10T20:38:15.377Z,5.62
2019-05-10T20:40:41.532Z,6.35
2019-05-10T20:43:07.748Z,6.78
2019-05-10T20:45:34.096Z,7.42
2019-05-10T20:48:00.318Z,6.87
2019-05-10T20:50:26.431Z,7.12
2019-05-10T20:52:55.875Z,7.30
2019-05-10T20:55:22.002Z,6.78
2019-05-10T20:57:48.224Z,5.70
2019-05-10T21:00:14.651Z,4.95
2019-05-10T21:02:40.882Z,3.77
2019-05-10T21:05:07.815Z,3.27
2019-05-10T21:07:34.043Z,3.30
2019-05-10T21:10:00.283Z,3.60
2019-05-10T21:12:26.603Z,3.08
2019-05-10T21:14:52.743Z,3.17
2019-05-10T21:17:18.983Z,3.50
2019-05-10T21:19:45.160Z,3.67
2019-05-10T21:22:11.452Z,4.40
2019-05-10T21:24:37.665Z,5.15
2019-05-10T21:27:03.955Z,5.22
2019-05-10T21:29:30.153Z,5.25
2019-05-10T21:31:56.327Z,5.97
2019-05-10T21:34:22.486Z,5.62
2019-05-10T21:36:48.715Z,5.50
2019-05-10T21:39:15.867Z,5.50
2019-05-10T21:41:42.038Z,5.70
2019-05-10T21:44:08.210Z,6.42
2019-05-10T21:46:35.285Z,5.55
2019-05-10T21:49:01.390Z,4.75
2019-05-10T21:51:27.624Z,5.35
2019-05-10T21:53:53.747Z,4.28
2019-05-10T21:56:19.957Z,4.70
2019-05-10T21:58:46.130Z,4.78
2019-05-10T22:01:12.476Z,4.55
2019-05-10T22:03:38.830Z,5.08
2019-05-10T22:06:05.000Z,5.12
2019-05-10T22:08:31.266Z,4.78
2019-05-10T22:10:57.642Z,4.42
2019-05-10T22:13:23.987Z,4.58
2019-05-10T22:15:50.296Z,4.60
2019-05-10T22:18:16.450Z,4.35
2019-05-10T22:20:42.630Z,4.50
2019-05-10T22:23:08.799Z,3.62
2019-05-10T22:25:35.025Z,3.42
2019-05-10T22:28:01.252Z,5.12
2019-05-10T22:30:27.575Z,4.45
2019-05-10T22:32:53.887Z,4.83
2019-05-10T22:35:20.012Z,6.10
2019-05-10T22:37:46.235Z,5.25
2019-05-10T22:40:12.685Z,4.90
2019-05-10T22:42:38.944Z,5.37
2019-05-10T22:45:05.357Z,5.25
2019-05-10T22:47:31.465Z,5.47
2019-05-10T22:49:57.776Z,6.90
2019-05-10T22:52:24.034Z,6.58
2019-05-10T22:54:50.271Z,7.05
2019-05-10T22:57:16.443Z,6.95
2019-05-10T22:59:42.700Z,6.97
2019-05-10T23:02:08.971Z,6.60
2019-05-10T23:04:35.181Z,6.55
2019-05-10T23:07:01.292Z,6.95
2019-05-10T23:09:27.508Z,6.70
2019-05-10T23:11:53.672Z,6.20
2019-05-10T23:14:19.954Z,6.08
2019-05-10T23:16:46.234Z,5.87
2019-05-10T23:19:12.491Z,4.78
2019-05-10T23:21:38.711Z,4.00
2019-05-10T23:24:07.512Z,3.87
2019-05-10T23:26:34.719Z,4.08
2019-05-10T23:29:00.818Z,3.83
2019-05-10T23:31:27.013Z,3.65
2019-05-10T23:33:53.114Z,3.60
2019-05-10T23:36:19.353Z,3.40
2019-05-10T23:38:45.851Z,3.40
2019-05-10T23:41:12.089Z,3.85
2019-05-10T23:43:38.195Z,4.03
2019-05-10T23:46:05.404Z,3.60
2019-05-10T23:48:31.549Z,3.35
2019-05-10T23:50:57.799Z,3.60
2019-05-10T23:53:24.099Z,3.50
2019-05-10T23:55:50.375Z,3.58
2019-05-10T23:58:16.678Z,3.50
